createdAt,value
2023-01-25T00:01:10.677Z,21.30
2023-01-25T00:03:45.875Z,20.20
2023-01-25T00:06:16.754Z,19.15
2023-01-25T00:08:47.566Z,19.20
2023-01-25T00:11:19.988Z,19.70
2023-01-25T00:13:55.690Z,21.33
2023-01-25T00:16:27.215Z,19.90
2023-01-25T00:19:00.615Z,19.88
2023-01-25T00:21:31.324Z,18.77
2023-01-25T00:24:02.194Z,18.80
2023-01-25T00:26:33.611Z,18.98
2023-01-25T00:29:05.040Z,18.67
2023-01-25T00:31:43.748Z,18.85
2023-01-25T00:34:48.773Z,20.23
2023-01-25T00:37:27.615Z,18.73
2023-01-25T00:39:58.532Z,19.17
2023-01-25T00:42:29.412Z,19.60
2023-01-25T00:45:00.317Z,19.02
2023-01-25T00:47:32.080Z,19.00
2023-01-25T00:50:05.454Z,18.63
2023-01-25T00:52:36.339Z,19.58
2023-01-25T00:55:08.321Z,20.38
2023-01-25T00:57:39.207Z,19.65
2023-01-25T01:00:12.003Z,20.83
2023-01-25T01:02:42.922Z,19.42
2023-01-25T01:05:18.322Z,19.17
2023-01-25T01:07:52.156Z,20.30
2023-01-25T01:10:22.885Z,19.48
2023-01-25T01:12:54.326Z,21.35
2023-01-25T01:15:25.667Z,20.27
2023-01-25T01:17:56.396Z,21.02
2023-01-25T01:20:29.697Z,20.75
2023-01-25T01:23:00.486Z,20.45
2023-01-25T01:25:31.219Z,21.10
2023-01-25T01:28:04.291Z,18.77
2023-01-25T01:30:37.169Z,21.05
2023-01-25T01:33:08.405Z,20.25
2023-01-25T01:35:41.759Z,20.00
2023-01-25T01:38:12.453Z,20.45
2023-01-25T01:40:47.611Z,20.48
2023-01-25T01:43:20.918Z,20.40
2023-01-25T01:46:00.154Z,19.85
2023-01-25T01:48:43.024Z,21.25
2023-01-25T01:51:20.738Z,22.25
2023-01-25T01:53:55.242Z,21.33
2023-01-25T01:56:33.002Z,21.42
2023-01-25T01:59:05.914Z,20.25
2023-01-25T02:01:39.332Z,21.55
2023-01-25T02:04:11.883Z,19.75
2023-01-25T02:06:49.837Z,20.13
2023-01-25T02:09:24.100Z,19.83
2023-01-25T02:11:59.678Z,20.30
2023-01-25T02:14:31.908Z,22.25
2023-01-25T02:17:06.766Z,20.65
2023-01-25T02:19:53.255Z,21.27
2023-01-25T02:22:33.555Z,21.10
2023-01-25T02:25:10.750Z,20.42
2023-01-25T02:27:47.748Z,19.60
2023-01-25T02:30:18.964Z,21.20
2023-01-25T02:32:52.967Z,19.65
2023-01-25T02:35:25.322Z,18.90
2023-01-25T02:37:56.060Z,20.60
2023-01-25T02:41:06.006Z,20.45
2023-01-25T02:43:40.021Z,20.42
2023-01-25T02:46:18.088Z,20.95
2023-01-25T02:48:48.837Z,19.45
2023-01-25T02:51:19.688Z,20.33
2023-01-25T02:53:50.543Z,19.75
2023-01-25T02:56:22.182Z,20.55
2023-01-25T02:58:56.712Z,19.92
2023-01-25T03:01:27.990Z,21.00
2023-01-25T03:03:58.814Z,20.75
2023-01-25T03:06:32.289Z,21.48
2023-01-25T03:09:04.992Z,22.08
2023-01-25T03:11:35.694Z,22.10
2023-01-25T03:14:09.164Z,21.00
2023-01-25T03:16:42.076Z,21.23
2023-01-25T03:19:13.042Z,20.50
2023-01-25T03:21:45.491Z,20.23
2023-01-25T03:24:18.833Z,19.30
2023-01-25T03:27:02.452Z,20.20
2023-01-25T03:29:38.419Z,21.38
2023-01-25T03:32:09.452Z,19.50
2023-01-25T03:34:40.338Z,20.77
2023-01-25T03:37:11.105Z,20.70
2023-01-25T03:39:41.974Z,20.77
2023-01-25T03:42:13.449Z,21.05
2023-01-25T03:44:46.758Z,20.35
2023-01-25T03:47:17.739Z,20.77
2023-01-25T03:49:48.591Z,20.77
2023-01-25T03:52:19.560Z,19.08
2023-01-25T03:54:50.273Z,21.05
2023-01-25T03:57:24.429Z,20.60
2023-01-25T03:59:57.733Z,21.70
2023-01-25T04:02:28.523Z,21.08
2023-01-25T04:04:59.428Z,20.15
2023-01-25T04:07:30.096Z,20.92
2023-01-25T04:10:00.855Z,22.13
2023-01-25T04:12:31.710Z,21.38
2023-01-25T04:15:05.320Z,20.80
2023-01-25T04:17:38.364Z,21.65
2023-01-25T04:20:10.782Z,21.98
2023-01-25T04:22:41.479Z,22.40
2023-01-25T04:25:13.023Z,22.15
2023-01-25T04:27:45.237Z,22.23
2023-01-25T04:30:19.374Z,22.75
2023-01-25T04:32:50.294Z,22.27
2023-01-25T04:35:21.737Z,19.25
2023-01-25T04:38:00.498Z,20.63
2023-01-25T04:40:31.317Z,20.15
2023-01-25T04:43:02.102Z,19.60
2023-01-25T04:45:36.408Z,21.33
2023-01-25T04:48:09.934Z,20.70
2023-01-25T04:50:41.635Z,20.70
2023-01-25T04:53:13.905Z,20.75
2023-01-25T04:55:48.857Z,20.58
2023-01-25T04:58:20.004Z,20.40
2023-01-25T05:00:53.355Z,20.05
2023-01-25T05:03:25.676Z,21.70
2023-01-25T05:05:57.629Z,21.77
2023-01-25T05:08:28.765Z,20.30
2023-01-25T05:10:59.507Z,19.50
2023-01-25T05:13:30.264Z,19.75
2023-01-25T05:16:08.431Z,21.70
2023-01-25T05:18:48.527Z,20.20
2023-01-25T05:21:32.267Z,18.95
2023-01-25T05:24:03.058Z,19.00
2023-01-25T05:26:46.605Z,17.05
2023-01-25T05:29:19.040Z,18.98
2023-01-25T05:31:52.395Z,18.20
2023-01-25T05:34:23.207Z,18.08
2023-01-25T05:36:53.980Z,16.65
2023-01-25T05:39:24.750Z,17.75
2023-01-25T05:41:55.820Z,17.48
2023-01-25T05:44:27.395Z,15.82
2023-01-25T05:47:04.322Z,18.15
2023-01-25T05:49:35.035Z,15.50
2023-01-25T05:52:05.837Z,15.52
2023-01-25T05:54:36.685Z,14.80
2023-01-25T05:57:13.201Z,15.15
2023-01-25T05:59:44.109Z,15.57
2023-01-25T06:02:20.435Z,14.57
2023-01-25T06:04:52.357Z,14.63
2023-01-25T06:07:24.731Z,15.43
2023-01-25T06:09:55.565Z,15.63
2023-01-25T06:12:26.275Z,15.48
2023-01-25T06:15:00.280Z,15.65
2023-01-25T06:17:33.813Z,16.30
2023-01-25T06:20:04.583Z,16.55
2023-01-25T06:22:35.348Z,16.52
2023-01-25T06:25:06.496Z,16.80
2023-01-25T06:27:37.564Z,14.88
2023-01-25T06:30:09.664Z,16.00
2023-01-25T06:32:43.111Z,16.95
2023-01-25T06:35:13.831Z,15.30
2023-01-25T06:37:44.815Z,16.70
2023-01-25T06:40:18.489Z,17.25
2023-01-25T06:42:51.544Z,16.08
2023-01-25T06:45:24.841Z,16.88
2023-01-25T06:47:58.207Z,17.00
2023-01-25T06:50:29.173Z,16.92
2023-01-25T06:53:00.145Z,15.10
2023-01-25T06:55:31.689Z,16.42
2023-01-25T06:58:03.510Z,15.15
2023-01-25T07:00:34.361Z,16.25
2023-01-25T07:03:07.871Z,16.23
2023-01-25T07:05:38.632Z,15.70
2023-01-25T07:08:09.399Z,15.00
2023-01-25T07:10:42.980Z,16.75
2023-01-25T07:13:13.703Z,16.45
2023-01-25T07:15:44.523Z,16.08
2023-01-25T07:18:17.979Z,16.05
2023-01-25T07:20:51.682Z,15.27
2023-01-25T07:23:24.672Z,13.48
2023-01-25T07:26:20.378Z,15.07
2023-01-25T07:28:52.210Z,15.82
2023-01-25T07:31:23.746Z,14.18
2023-01-25T07:33:59.397Z,16.75
2023-01-25T07:36:30.188Z,16.63
2023-01-25T07:39:01.552Z,16.38
2023-01-25T07:41:34.796Z,16.45
2023-01-25T07:44:07.661Z,14.85
2023-01-25T07:46:38.600Z,17.10
2023-01-25T07:49:11.992Z,17.42
2023-01-25T07:51:43.077Z,17.15
2023-01-25T07:54:14.831Z,15.32
2023-01-25T07:56:45.604Z,14.43
2023-01-25T07:59:16.929Z,14.57
2023-01-25T08:02:18.939Z,15.10
2023-01-25T08:04:53.664Z,15.88
2023-01-25T08:07:25.007Z,17.45
2023-01-25T08:09:55.817Z,17.55
2023-01-25T08:12:28.014Z,17.55
2023-01-25T08:14:58.819Z,18.33
2023-01-25T08:17:32.757Z,18.13
2023-01-25T08:20:08.231Z,21.02
2023-01-25T08:22:38.950Z,18.98
2023-01-25T08:25:11.532Z,17.92
2023-01-25T08:27:42.524Z,16.65
2023-01-25T08:30:14.915Z,17.77
2023-01-25T08:32:48.209Z,18.42
2023-01-25T08:35:21.844Z,18.77
2023-01-25T08:37:53.766Z,18.35
2023-01-25T08:40:24.833Z,17.67
2023-01-25T08:42:55.734Z,19.30
2023-01-25T08:45:26.449Z,18.80
2023-01-25T08:47:57.631Z,21.75
2023-01-25T08:50:31.078Z,18.13
2023-01-25T08:53:01.848Z,19.15
2023-01-25T08:55:32.604Z,19.15
2023-01-25T08:58:03.344Z,17.90
2023-01-25T09:00:34.117Z,19.88
2023-01-25T09:03:04.870Z,17.73
2023-01-25T09:05:40.694Z,18.40
2023-01-25T09:08:13.178Z,17.83
2023-01-25T09:10:46.863Z,20.45
2023-01-25T09:13:17.572Z,19.98
2023-01-25T09:15:48.709Z,18.30
2023-01-25T09:18:22.233Z,18.33
2023-01-25T09:20:55.665Z,18.67
2023-01-25T09:23:26.948Z,19.80
2023-01-25T09:26:04.267Z,17.90
2023-01-25T09:28:38.363Z,19.70
2023-01-25T09:31:21.684Z,20.48
2023-01-25T09:33:54.833Z,19.55
2023-01-25T09:36:28.625Z,21.27
2023-01-25T09:39:01.473Z,18.77
2023-01-25T09:42:13.929Z,19.67
2023-01-25T09:45:08.203Z,19.10
2023-01-25T09:47:46.896Z,18.35
2023-01-25T09:50:29.687Z,19.30
2023-01-25T09:53:27.172Z,19.02
2023-01-25T09:56:03.941Z,18.98
2023-01-25T09:58:40.871Z,19.80
2023-01-25T10:01:36.741Z,18.73
2023-01-25T10:04:17.961Z,17.85
2023-01-25T10:07:00.075Z,16.85
2023-01-25T10:09:38.816Z,18.85
2023-01-25T10:12:18.685Z,18.00
2023-01-25T10:14:49.550Z,18.83
2023-01-25T10:17:30.110Z,20.30
2023-01-25T10:20:11.921Z,20.25
2023-01-25T10:22:53.967Z,18.50
2023-01-25T10:25:31.202Z,23.10
2023-01-25T10:28:30.238Z,19.88
2023-01-25T10:31:03.885Z,19.40
2023-01-25T10:33:39.353Z,19.75
2023-01-25T10:36:16.463Z,19.88
2023-01-25T10:38:49.139Z,19.90
2023-01-25T10:41:31.139Z,19.17
2023-01-25T10:44:28.906Z,21.75
2023-01-25T10:47:03.409Z,22.05
2023-01-25T10:49:44.250Z,23.15
2023-01-25T10:52:20.780Z,23.80
2023-01-25T10:55:09.450Z,24.08
2023-01-25T10:57:44.897Z,22.63
2023-01-25T11:00:30.568Z,21.25
2023-01-25T11:03:02.564Z,20.30
2023-01-25T11:05:36.107Z,20.00
2023-01-25T11:08:26.371Z,20.35
2023-01-25T11:11:00.924Z,21.38
2023-01-25T11:13:35.435Z,20.27
2023-01-25T11:16:27.860Z,22.45
2023-01-25T11:19:00.323Z,20.58
2023-01-25T11:21:35.885Z,21.85
2023-01-25T11:24:20.070Z,21.05
2023-01-25T11:26:51.032Z,23.83
2023-01-25T11:29:25.476Z,23.33
2023-01-25T11:31:59.664Z,21.67
2023-01-25T11:34:31.984Z,22.42
2023-01-25T11:37:21.663Z,20.17
2023-01-25T11:40:03.539Z,21.77
2023-01-25T11:42:45.062Z,20.33
2023-01-25T11:46:01.806Z,20.95
2023-01-25T11:49:03.175Z,22.13
2023-01-25T11:51:40.999Z,22.30
2023-01-25T11:54:30.445Z,21.85
2023-01-25T11:57:03.334Z,23.90
2023-01-25T11:59:58.615Z,23.95
2023-01-25T12:02:49.834Z,22.70
2023-01-25T12:05:37.112Z,23.40
2023-01-25T12:08:32.903Z,19.70
2023-01-25T12:11:12.463Z,19.63
2023-01-25T12:13:52.243Z,18.10
2023-01-25T12:16:36.810Z,18.33
2023-01-25T12:19:23.857Z,21.00
2023-01-25T12:22:22.545Z,22.02
2023-01-25T12:25:02.140Z,21.23
2023-01-25T12:27:45.486Z,21.90
2023-01-25T12:30:21.844Z,20.80
2023-01-25T12:33:02.422Z,19.63
2023-01-25T12:35:49.048Z,17.90
2023-01-25T12:38:28.593Z,18.52
2023-01-25T12:41:08.314Z,20.80
2023-01-25T12:43:44.698Z,19.27
2023-01-25T12:46:20.730Z,19.23
2023-01-25T12:48:55.178Z,18.27
2023-01-25T12:51:32.528Z,19.10
2023-01-25T12:54:15.670Z,18.65
2023-01-25T12:56:58.353Z,17.92
2023-01-25T12:59:37.054Z,17.45
2023-01-25T13:02:25.259Z,17.23
2023-01-25T13:05:05.159Z,15.77
2023-01-25T13:07:46.888Z,16.02
2023-01-25T13:10:27.155Z,15.75
2023-01-25T13:13:03.267Z,15.82
2023-01-25T13:15:41.471Z,17.20
2023-01-25T13:18:40.333Z,17.15
2023-01-25T13:21:28.034Z,18.45
2023-01-25T13:24:15.289Z,16.55
2023-01-25T13:27:00.067Z,18.23
2023-01-25T13:30:03.122Z,16.65
2023-01-25T13:33:06.369Z,17.85
2023-01-25T13:35:40.030Z,18.08
2023-01-25T13:38:32.235Z,17.20
2023-01-25T13:41:15.421Z,18.50
2023-01-25T13:44:20.919Z,17.17
2023-01-25T13:46:54.333Z,16.70
2023-01-25T13:49:35.596Z,15.43
2023-01-25T13:52:07.254Z,16.20
2023-01-25T13:54:45.921Z,17.52
2023-01-25T13:57:22.159Z,17.50
2023-01-25T14:00:10.201Z,17.48
2023-01-25T14:02:43.171Z,17.45
2023-01-25T14:05:22.091Z,17.05
2023-01-25T14:07:56.269Z,17.52
2023-01-25T14:10:30.161Z,16.88
2023-01-25T14:13:04.085Z,18.50
2023-01-25T14:15:37.465Z,18.73
2023-01-25T14:18:17.583Z,18.15
2023-01-25T14:20:49.772Z,18.55
2023-01-25T14:23:25.524Z,18.70
2023-01-25T14:25:59.388Z,19.52
2023-01-25T14:28:32.481Z,19.63
2023-01-25T14:31:06.166Z,21.15
2023-01-25T14:33:44.502Z,19.67
2023-01-25T14:36:25.258Z,19.67
2023-01-25T14:38:57.363Z,20.15
2023-01-25T14:41:32.491Z,19.92
2023-01-25T14:44:10.691Z,21.23
2023-01-25T14:46:44.785Z,19.42
2023-01-25T14:49:28.094Z,22.33
2023-01-25T14:52:05.570Z,21.55
2023-01-25T14:54:40.400Z,21.17
2023-01-25T14:57:34.266Z,21.35
2023-01-25T15:00:09.393Z,21.58
2023-01-25T15:02:49.680Z,21.55
2023-01-25T15:05:24.157Z,21.02
2023-01-25T15:07:56.466Z,22.52
2023-01-25T15:10:29.720Z,21.80
2023-01-25T15:13:18.398Z,27.17
2023-01-25T15:15:54.853Z,24.98
2023-01-25T15:18:51.169Z,26.63
2023-01-25T15:21:23.341Z,25.63
2023-01-25T15:23:55.181Z,29.00
2023-01-25T15:26:27.182Z,27.70
2023-01-25T15:29:02.588Z,34.45
2023-01-25T15:31:35.971Z,26.40
2023-01-25T15:34:18.787Z,24.92
2023-01-25T15:36:50.172Z,24.90
2023-01-25T15:39:22.321Z,24.38
2023-01-25T15:41:53.233Z,24.58
2023-01-25T15:44:23.988Z,25.13
2023-01-25T15:46:55.250Z,25.35
2023-01-25T15:49:31.608Z,24.92
2023-01-25T15:52:02.562Z,25.85
2023-01-25T15:54:33.249Z,25.65
2023-01-25T15:57:04.095Z,27.23
2023-01-25T15:59:37.552Z,26.10
2023-01-25T16:02:14.296Z,26.90
2023-01-25T16:04:47.999Z,28.30
2023-01-25T16:07:25.440Z,29.27
2023-01-25T16:09:56.261Z,28.50
2023-01-25T16:12:28.618Z,26.75
2023-01-25T16:14:59.326Z,25.70
2023-01-25T16:17:30.605Z,27.92
2023-01-25T16:20:04.066Z,29.95
2023-01-25T16:22:34.796Z,30.27
2023-01-25T16:25:05.571Z,28.13
2023-01-25T16:27:37.161Z,29.92
2023-01-25T16:30:10.034Z,30.08
2023-01-25T16:32:41.176Z,31.45
2023-01-25T16:35:14.715Z,32.30
2023-01-25T16:37:45.487Z,28.48
2023-01-25T16:40:25.520Z,29.98
2023-01-25T16:42:59.366Z,30.50
2023-01-25T16:45:30.674Z,30.05
2023-01-25T16:48:01.961Z,30.58
2023-01-25T16:50:35.456Z,32.20
2023-01-25T16:53:06.230Z,29.40
2023-01-25T16:55:37.113Z,31.13
2023-01-25T16:58:20.055Z,29.40
2023-01-25T17:00:51.049Z,30.83
2023-01-25T17:03:21.764Z,32.08
2023-01-25T17:05:55.467Z,34.50
2023-01-25T17:08:27.847Z,32.15
2023-01-25T17:10:58.551Z,30.70
2023-01-25T17:13:29.356Z,30.80
2023-01-25T17:16:00.932Z,32.15
2023-01-25T17:18:32.013Z,30.13
2023-01-25T17:21:07.925Z,30.10
2023-01-25T17:23:40.567Z,29.27
2023-01-25T17:26:14.222Z,28.35
2023-01-25T17:28:46.262Z,30.48
2023-01-25T17:31:21.445Z,33.53
2023-01-25T17:33:53.107Z,30.55
2023-01-25T17:36:34.227Z,31.42
2023-01-25T17:39:09.115Z,30.77
2023-01-25T17:41:39.883Z,31.85
2023-01-25T17:44:10.723Z,30.20
2023-01-25T17:46:41.631Z,30.13
2023-01-25T17:49:16.674Z,32.10
2023-01-25T17:51:50.075Z,29.98
2023-01-25T17:54:20.825Z,30.60
2023-01-25T17:56:52.138Z,31.70
2023-01-25T17:59:22.920Z,29.15
2023-01-25T18:01:56.024Z,30.05
2023-01-25T18:04:26.982Z,29.15
2023-01-25T18:07:03.208Z,30.88
2023-01-25T18:09:35.831Z,30.63
2023-01-25T18:12:06.937Z,29.30
2023-01-25T18:14:37.807Z,30.48
2023-01-25T18:17:08.532Z,28.98
2023-01-25T18:19:39.807Z,31.63
2023-01-25T18:22:13.649Z,32.85
2023-01-25T18:24:45.925Z,29.52
2023-01-25T18:27:22.721Z,30.35
2023-01-25T18:30:01.979Z,29.13
2023-01-25T18:32:33.660Z,32.28
2023-01-25T18:35:04.771Z,32.75
2023-01-25T18:37:44.320Z,31.30
2023-01-25T18:40:18.795Z,28.90
2023-01-25T18:42:50.251Z,34.20
2023-01-25T18:45:22.505Z,29.48
2023-01-25T18:47:53.274Z,29.50
2023-01-25T18:50:24.036Z,31.20
2023-01-25T18:52:57.404Z,32.00
2023-01-25T18:55:28.339Z,31.25
2023-01-25T18:58:04.082Z,29.30
2023-01-25T19:00:35.842Z,30.98
2023-01-25T19:03:06.779Z,31.63
2023-01-25T19:05:38.079Z,30.70
2023-01-25T19:08:11.474Z,32.47
2023-01-25T19:10:42.173Z,32.30
2023-01-25T19:13:12.918Z,30.58
2023-01-25T19:15:43.977Z,32.40
2023-01-25T19:18:14.644Z,32.20
2023-01-25T19:20:47.102Z,31.15
2023-01-25T19:23:20.450Z,33.35
2023-01-25T19:25:56.198Z,31.05
2023-01-25T19:28:27.020Z,32.15
2023-01-25T19:30:58.252Z,32.97
2023-01-25T19:33:29.506Z,32.53
2023-01-25T19:36:04.659Z,33.28
2023-01-25T19:38:41.875Z,32.47
2023-01-25T19:41:17.193Z,34.35
2023-01-25T19:43:48.619Z,33.38
2023-01-25T19:46:21.755Z,32.65
2023-01-25T19:48:54.702Z,27.85
2023-01-25T19:51:28.245Z,28.63
2023-01-25T19:54:03.361Z,30.08
2023-01-25T19:56:39.594Z,29.58
2023-01-25T19:59:13.377Z,28.88
2023-01-25T20:01:45.255Z,34.03
2023-01-25T20:04:19.713Z,33.20
2023-01-25T20:06:51.397Z,35.05
2023-01-25T20:09:28.661Z,32.40
2023-01-25T20:12:00.736Z,33.65
2023-01-25T20:14:31.643Z,33.03
2023-01-25T20:17:06.091Z,31.75
2023-01-25T20:19:38.711Z,32.63
2023-01-25T20:22:12.597Z,33.00
2023-01-25T20:24:45.885Z,32.25
2023-01-25T20:27:16.574Z,29.15
2023-01-25T20:29:49.163Z,27.80
2023-01-25T20:32:32.101Z,26.77
2023-01-25T20:35:06.294Z,26.55
2023-01-25T20:37:40.206Z,24.90
2023-01-25T20:40:22.659Z,26.50
2023-01-25T20:42:55.713Z,22.90
2023-01-25T20:45:26.727Z,25.42
2023-01-25T20:47:57.642Z,24.42
2023-01-25T20:50:28.378Z,24.05
2023-01-25T20:52:59.104Z,25.08
2023-01-25T20:55:32.451Z,24.95
2023-01-25T20:58:06.083Z,25.38
2023-01-25T21:00:36.911Z,26.10
2023-01-25T21:03:07.634Z,27.00
2023-01-25T21:05:38.406Z,27.50
2023-01-25T21:08:12.359Z,28.55
2023-01-25T21:10:50.269Z,29.30
2023-01-25T21:13:21.790Z,28.52
2023-01-25T21:16:06.504Z,25.00
2023-01-25T21:18:38.789Z,24.77
2023-01-25T21:21:11.774Z,28.27
2023-01-25T21:23:44.836Z,28.67
2023-01-25T21:26:20.202Z,26.33
2023-01-25T21:28:51.761Z,26.85
2023-01-25T21:31:23.845Z,25.17
2023-01-25T21:33:55.289Z,28.52
2023-01-25T21:36:29.744Z,27.05
2023-01-25T21:39:00.536Z,28.50
2023-01-25T21:41:35.632Z,27.15
2023-01-25T21:44:19.771Z,28.33
2023-01-25T21:49:56.885Z,28.05
2023-01-25T21:52:30.628Z,28.48
2023-01-25T21:55:01.508Z,28.52
2023-01-25T21:57:35.621Z,30.25
2023-01-25T22:00:07.591Z,31.17
2023-01-25T22:02:38.849Z,30.70
2023-01-25T22:05:10.801Z,29.75
2023-01-25T22:07:45.564Z,30.38
2023-01-25T22:10:16.602Z,31.73
2023-01-25T22:12:52.339Z,32.85
2023-01-25T22:15:23.506Z,31.73
2023-01-25T22:17:54.458Z,30.25
2023-01-25T22:20:25.421Z,29.60
2023-01-25T22:22:56.144Z,31.27
2023-01-25T22:25:26.832Z,31.58
2023-01-25T22:28:03.076Z,30.90
2023-01-25T22:30:33.876Z,31.10
2023-01-25T22:33:05.404Z,30.92
2023-01-25T22:35:36.130Z,31.33
2023-01-25T22:38:09.902Z,32.78
2023-01-25T22:40:42.844Z,34.00
2023-01-25T22:43:16.129Z,31.58
2023-01-25T22:45:54.528Z,30.52
2023-01-25T22:48:25.525Z,33.58
2023-01-25T22:50:56.314Z,34.20
2023-01-25T22:53:26.969Z,30.55
2023-01-25T22:56:03.022Z,31.65
2023-01-25T22:58:37.569Z,33.08
2023-01-25T23:01:12.107Z,33.88
2023-01-25T23:03:43.099Z,33.08
2023-01-25T23:06:15.897Z,31.15
2023-01-25T23:08:47.653Z,31.45
2023-01-25T23:11:20.722Z,30.60
2023-01-25T23:14:07.939Z,30.65
2023-01-25T23:16:44.984Z,31.67
2023-01-25T23:19:14.515Z,30.23
2023-01-25T23:21:45.375Z,31.27
2023-01-25T23:24:16.306Z,30.20
2023-01-25T23:26:47.098Z,29.98
2023-01-25T23:29:20.391Z,30.85
2023-01-25T23:31:51.097Z,30.20
2023-01-25T23:34:21.885Z,30.55
2023-01-25T23:36:52.641Z,29.95
2023-01-25T23:39:23.718Z,29.98
2023-01-25T23:41:54.538Z,28.70
2023-01-25T23:44:27.976Z,29.42
2023-01-25T23:47:01.555Z,31.75
2023-01-25T23:49:32.364Z,31.75
2023-01-25T23:52:03.566Z,32.22
2023-01-25T23:54:34.271Z,33.08
2023-01-25T23:57:05.092Z,33.70
2023-01-25T23:59:39.106Z,33.42
